sensor_id;sensor_type;location;lat;lon;timestamp;P1;durP1;ratioP1;P2;durP2;ratioP2
25263;SDS011;13211;51.796;5.808;2023-12-22T00:01:04;28.23;;;2.45;;
25263;SDS011;13211;51.796;5.808;2023-12-22T00:03:32;21.08;;;1.65;;
25263;SDS011;13211;51.796;5.808;2023-12-22T00:06:00;28.33;;;2.15;;
25263;SDS011;13211;51.796;5.808;2023-12-22T00:08:28;24.83;;;2.20;;
25263;SDS011;13211;51.796;5.808;2023-12-22T00:10:55;20.98;;;2.08;;
25263;SDS011;13211;51.796;5.808;2023-12-22T00:13:23;16.35;;;1.60;;
25263;SDS011;13211;51.796;5.808;2023-12-22T00:15:51;17.25;;;1.98;;
25263;SDS011;13211;51.796;5.808;2023-12-22T00:18:18;18.27;;;2.10;;
25263;SDS011;13211;51.796;5.808;2023-12-22T00:20:46;17.95;;;1.77;;
25263;SDS011;13211;51.796;5.808;2023-12-22T00:23:13;15.85;;;1.92;;
25263;SDS011;13211;51.796;5.808;2023-12-22T00:25:41;16.77;;;1.90;;
25263;SDS011;13211;51.796;5.808;2023-12-22T00:28:09;9.05;;;1.30;;
25263;SDS011;13211;51.796;5.808;2023-12-22T00:30:36;15.57;;;1.65;;
25263;SDS011;13211;51.796;5.808;2023-12-22T00:33:04;15.90;;;2.03;;
25263;SDS011;13211;51.796;5.808;2023-12-22T00:35:32;14.82;;;2.30;;
25263;SDS011;13211;51.796;5.808;2023-12-22T00:38:02;13.65;;;1.52;;
25263;SDS011;13211;51.796;5.808;2023-12-22T00:40:30;14.98;;;1.38;;
25263;SDS011;13211;51.796;5.808;2023-12-22T00:42:58;12.57;;;1.70;;
25263;SDS011;13211;51.796;5.808;2023-12-22T00:45:25;12.50;;;1.60;;
25263;SDS011;13211;51.796;5.808;2023-12-22T00:47:53;19.15;;;2.20;;
25263;SDS011;13211;51.796;5.808;2023-12-22T00:50:21;17.17;;;1.75;;
25263;SDS011;13211;51.796;5.808;2023-12-22T00:52:48;14.13;;;2.13;;
25263;SDS011;13211;51.796;5.808;2023-12-22T00:55:16;15.20;;;1.70;;
25263;SDS011;13211;51.796;5.808;2023-12-22T00:57:44;10.48;;;1.50;;
25263;SDS011;13211;51.796;5.808;2023-12-22T01:00:12;7.32;;;0.75;;
25263;SDS011;13211;51.796;5.808;2023-12-22T01:02:40;10.00;;;1.30;;
25263;SDS011;13211;51.796;5.808;2023-12-22T01:05:07;5.85;;;0.98;;
25263;SDS011;13211;51.796;5.808;2023-12-22T01:07:36;5.53;;;0.80;;
25263;SDS011;13211;51.796;5.808;2023-12-22T01:10:03;6.75;;;0.70;;
25263;SDS011;13211;51.796;5.808;2023-12-22T01:12:31;13.25;;;1.25;;
25263;SDS011;13211;51.796;5.808;2023-12-22T01:14:59;7.45;;;0.93;;
25263;SDS011;13211;51.796;5.808;2023-12-22T01:17:27;10.30;;;1.35;;
25263;SDS011;13211;51.796;5.808;2023-12-22T01:19:54;8.30;;;1.23;;
25263;SDS011;13211;51.796;5.808;2023-12-22T01:22:22;7.68;;;1.08;;
25263;SDS011;13211;51.796;5.808;2023-12-22T01:24:50;10.68;;;1.30;;
25263;SDS011;13211;51.796;5.808;2023-12-22T01:27:18;12.40;;;1.63;;
25263;SDS011;13211;51.796;5.808;2023-12-22T01:29:46;11.43;;;1.55;;
25263;SDS011;13211;51.796;5.808;2023-12-22T01:32:14;18.80;;;1.30;;
25263;SDS011;13211;51.796;5.808;2023-12-22T01:34:41;10.50;;;1.25;;
25263;SDS011;13211;51.796;5.808;2023-12-22T01:37:09;14.02;;;1.75;;
25263;SDS011;13211;51.796;5.808;2023-12-22T01:39:37;8.20;;;1.00;;
25263;SDS011;13211;51.796;5.808;2023-12-22T01:42:04;9.43;;;1.10;;
25263;SDS011;13211;51.796;5.808;2023-12-22T01:44:32;17.05;;;2.25;;
25263;SDS011;13211;51.796;5.808;2023-12-22T01:47:00;13.98;;;1.52;;
25263;SDS011;13211;51.796;5.808;2023-12-22T01:49:27;8.57;;;1.42;;
25263;SDS011;13211;51.796;5.808;2023-12-22T01:51:56;12.52;;;1.58;;
25263;SDS011;13211;51.796;5.808;2023-12-22T01:54:24;13.48;;;1.65;;
25263;SDS011;13211;51.796;5.808;2023-12-22T01:56:52;10.60;;;1.48;;
25263;SDS011;13211;51.796;5.808;2023-12-22T01:59:19;6.22;;;1.13;;
25263;SDS011;13211;51.796;5.808;2023-12-22T02:01:47;14.20;;;1.20;;
25263;SDS011;13211;51.796;5.808;2023-12-22T02:04:15;9.05;;;1.58;;
25263;SDS011;13211;51.796;5.808;2023-12-22T02:06:43;9.05;;;1.08;;
25263;SDS011;13211;51.796;5.808;2023-12-22T02:09:11;17.83;;;1.67;;
25263;SDS011;13211;51.796;5.808;2023-12-22T02:11:39;12.68;;;2.13;;
25263;SDS011;13211;51.796;5.808;2023-12-22T02:14:06;16.33;;;2.15;;
25263;SDS011;13211;51.796;5.808;2023-12-22T02:19:42;16.67;;;1.85;;
25263;SDS011;13211;51.796;5.808;2023-12-22T02:22:06;15.75;;;2.28;;
25263;SDS011;13211;51.796;5.808;2023-12-22T02:24:35;19.00;;;1.73;;
25263;SDS011;13211;51.796;5.808;2023-12-22T02:27:27;20.95;;;2.10;;
25263;SDS011;13211;51.796;5.808;2023-12-22T02:30:01;20.98;;;4.20;;
25263;SDS011;13211;51.796;5.808;2023-12-22T02:32:31;24.25;;;2.45;;
25263;SDS011;13211;51.796;5.808;2023-12-22T02:35:02;24.63;;;2.63;;
25263;SDS011;13211;51.796;5.808;2023-12-22T02:37:30;19.40;;;2.10;;
25263;SDS011;13211;51.796;5.808;2023-12-22T02:39:59;25.20;;;2.83;;
25263;SDS011;13211;51.796;5.808;2023-12-22T02:42:28;21.40;;;2.42;;
25263;SDS011;13211;51.796;5.808;2023-12-22T02:44:57;24.08;;;2.42;;
25263;SDS011;13211;51.796;5.808;2023-12-22T02:47:26;22.63;;;2.95;;
25263;SDS011;13211;51.796;5.808;2023-12-22T02:49:58;21.13;;;2.00;;
25263;SDS011;13211;51.796;5.808;2023-12-22T02:52:26;20.73;;;2.20;;
25263;SDS011;13211;51.796;5.808;2023-12-22T02:54:54;22.65;;;2.38;;
25263;SDS011;13211;51.796;5.808;2023-12-22T02:57:22;20.83;;;2.38;;
25263;SDS011;13211;51.796;5.808;2023-12-22T02:59:49;25.85;;;2.28;;
25263;SDS011;13211;51.796;5.808;2023-12-22T03:02:17;18.95;;;1.77;;
25263;SDS011;13211;51.796;5.808;2023-12-22T03:04:45;30.50;;;2.30;;
25263;SDS011;13211;51.796;5.808;2023-12-22T03:07:15;22.02;;;2.75;;
25263;SDS011;13211;51.796;5.808;2023-12-22T03:09:43;28.67;;;3.30;;
25263;SDS011;13211;51.796;5.808;2023-12-22T03:12:11;26.52;;;2.60;;
25263;SDS011;13211;51.796;5.808;2023-12-22T03:14:39;26.60;;;2.83;;
25263;SDS011;13211;51.796;5.808;2023-12-22T03:17:07;29.67;;;3.20;;
25263;SDS011;13211;51.796;5.808;2023-12-22T03:19:36;28.27;;;3.17;;
25263;SDS011;13211;51.796;5.808;2023-12-22T03:22:04;23.92;;;2.67;;
25263;SDS011;13211;51.796;5.808;2023-12-22T03:24:32;31.67;;;3.28;;
25263;SDS011;13211;51.796;5.808;2023-12-22T03:27:00;35.22;;;4.00;;
25263;SDS011;13211;51.796;5.808;2023-12-22T03:29:27;31.58;;;3.08;;
25263;SDS011;13211;51.796;5.808;2023-12-22T03:31:55;41.35;;;4.72;;
25263;SDS011;13211;51.796;5.808;2023-12-22T03:34:23;37.95;;;3.33;;
25263;SDS011;13211;51.796;5.808;2023-12-22T03:36:51;30.10;;;3.38;;
25263;SDS011;13211;51.796;5.808;2023-12-22T03:39:19;30.38;;;3.03;;
25263;SDS011;13211;51.796;5.808;2023-12-22T03:41:47;32.88;;;3.50;;
25263;SDS011;13211;51.796;5.808;2023-12-22T03:44:14;37.35;;;3.85;;
25263;SDS011;13211;51.796;5.808;2023-12-22T03:46:42;33.67;;;3.72;;
25263;SDS011;13211;51.796;5.808;2023-12-22T03:49:10;21.27;;;3.38;;
25263;SDS011;13211;51.796;5.808;2023-12-22T03:51:38;23.42;;;2.50;;
25263;SDS011;13211;51.796;5.808;2023-12-22T03:54:08;42.72;;;3.85;;
25263;SDS011;13211;51.796;5.808;2023-12-22T03:56:36;28.95;;;2.70;;
25263;SDS011;13211;51.796;5.808;2023-12-22T03:59:04;28.60;;;3.13;;
25263;SDS011;13211;51.796;5.808;2023-12-22T04:01:31;33.15;;;3.65;;
25263;SDS011;13211;51.796;5.808;2023-12-22T04:03:59;29.27;;;3.05;;
25263;SDS011;13211;51.796;5.808;2023-12-22T04:06:27;35.90;;;3.38;;
25263;SDS011;13211;51.796;5.808;2023-12-22T04:08:55;26.70;;;3.28;;
25263;SDS011;13211;51.796;5.808;2023-12-22T04:11:23;28.88;;;2.80;;
25263;SDS011;13211;51.796;5.808;2023-12-22T04:13:50;24.73;;;2.55;;
25263;SDS011;13211;51.796;5.808;2023-12-22T04:16:18;30.30;;;3.35;;
25263;SDS011;13211;51.796;5.808;2023-12-22T04:18:46;33.88;;;3.08;;
25263;SDS011;13211;51.796;5.808;2023-12-22T04:21:18;29.30;;;3.60;;
25263;SDS011;13211;51.796;5.808;2023-12-22T04:23:46;28.45;;;3.53;;
25263;SDS011;13211;51.796;5.808;2023-12-22T04:26:14;40.20;;;4.35;;
25263;SDS011;13211;51.796;5.808;2023-12-22T04:28:41;29.80;;;2.95;;
25263;SDS011;13211;51.796;5.808;2023-12-22T04:31:09;29.00;;;2.83;;
25263;SDS011;13211;51.796;5.808;2023-12-22T04:33:37;37.05;;;5.05;;
25263;SDS011;13211;51.796;5.808;2023-12-22T04:36:04;24.60;;;2.72;;
25263;SDS011;13211;51.796;5.808;2023-12-22T04:38:33;17.25;;;2.08;;
25263;SDS011;13211;51.796;5.808;2023-12-22T04:41:00;19.50;;;2.10;;
25263;SDS011;13211;51.796;5.808;2023-12-22T04:43:28;19.00;;;1.90;;
25263;SDS011;13211;51.796;5.808;2023-12-22T04:45:56;16.42;;;1.75;;
25263;SDS011;13211;51.796;5.808;2023-12-22T04:48:24;6.72;;;1.13;;
25263;SDS011;13211;51.796;5.808;2023-12-22T04:50:52;12.18;;;1.40;;
25263;SDS011;13211;51.796;5.808;2023-12-22T04:53:20;8.40;;;1.58;;
25263;SDS011;13211;51.796;5.808;2023-12-22T04:55:48;10.95;;;1.27;;
25263;SDS011;13211;51.796;5.808;2023-12-22T04:58:15;14.30;;;1.75;;
25263;SDS011;13211;51.796;5.808;2023-12-22T05:00:43;30.80;;;3.90;;
25263;SDS011;13211;51.796;5.808;2023-12-22T05:03:11;22.50;;;2.55;;
25263;SDS011;13211;51.796;5.808;2023-12-22T05:05:38;29.42;;;3.45;;
25263;SDS011;13211;51.796;5.808;2023-12-22T05:08:06;23.25;;;3.15;;
25263;SDS011;13211;51.796;5.808;2023-12-22T05:10:34;26.48;;;3.63;;
25263;SDS011;13211;51.796;5.808;2023-12-22T05:13:01;32.88;;;4.15;;
25263;SDS011;13211;51.796;5.808;2023-12-22T05:15:29;26.73;;;3.25;;
25263;SDS011;13211;51.796;5.808;2023-12-22T05:17:57;28.50;;;3.10;;
25263;SDS011;13211;51.796;5.808;2023-12-22T05:20:24;31.27;;;3.45;;
25263;SDS011;13211;51.796;5.808;2023-12-22T05:22:52;28.58;;;3.38;;
25263;SDS011;13211;51.796;5.808;2023-12-22T05:25:20;32.63;;;3.40;;
25263;SDS011;13211;51.796;5.808;2023-12-22T05:27:48;31.98;;;3.70;;
25263;SDS011;13211;51.796;5.808;2023-12-22T05:30:16;33.72;;;3.03;;
25263;SDS011;13211;51.796;5.808;2023-12-22T05:32:44;27.20;;;3.45;;
25263;SDS011;13211;51.796;5.808;2023-12-22T05:35:11;32.95;;;3.95;;
25263;SDS011;13211;51.796;5.808;2023-12-22T05:37:39;24.70;;;3.30;;
25263;SDS011;13211;51.796;5.808;2023-12-22T05:40:07;29.90;;;4.47;;
25263;SDS011;13211;51.796;5.808;2023-12-22T05:42:36;40.35;;;3.90;;
25263;SDS011;13211;51.796;5.808;2023-12-22T05:45:04;34.97;;;3.20;;
25263;SDS011;13211;51.796;5.808;2023-12-22T05:47:32;28.15;;;2.85;;
25263;SDS011;13211;51.796;5.808;2023-12-22T05:50:03;22.35;;;2.97;;
25263;SDS011;13211;51.796;5.808;2023-12-22T05:52:31;28.27;;;3.63;;
25263;SDS011;13211;51.796;5.808;2023-12-22T05:54:59;25.80;;;2.53;;
25263;SDS011;13211;51.796;5.808;2023-12-22T05:57:26;26.08;;;2.35;;
25263;SDS011;13211;51.796;5.808;2023-12-22T05:59:54;28.92;;;2.90;;
25263;SDS011;13211;51.796;5.808;2023-12-22T06:02:21;21.63;;;2.40;;
25263;SDS011;13211;51.796;5.808;2023-12-22T06:04:49;18.25;;;2.03;;
25263;SDS011;13211;51.796;5.808;2023-12-22T06:07:17;29.77;;;2.60;;
25263;SDS011;13211;51.796;5.808;2023-12-22T06:09:46;26.92;;;3.10;;
25263;SDS011;13211;51.796;5.808;2023-12-22T06:12:13;35.50;;;3.40;;
25263;SDS011;13211;51.796;5.808;2023-12-22T06:14:41;20.05;;;2.03;;
25263;SDS011;13211;51.796;5.808;2023-12-22T06:17:08;17.40;;;1.95;;
25263;SDS011;13211;51.796;5.808;2023-12-22T06:19:36;17.55;;;1.92;;
25263;SDS011;13211;51.796;5.808;2023-12-22T06:22:04;20.92;;;2.20;;
25263;SDS011;13211;51.796;5.808;2023-12-22T06:24:34;14.52;;;2.28;;
25263;SDS011;13211;51.796;5.808;2023-12-22T06:27:02;13.70;;;2.03;;
25263;SDS011;13211;51.796;5.808;2023-12-22T06:29:30;21.73;;;2.83;;
25263;SDS011;13211;51.796;5.808;2023-12-22T06:31:58;12.23;;;2.00;;
25263;SDS011;13211;51.796;5.808;2023-12-22T06:34:26;17.35;;;2.30;;
25263;SDS011;13211;51.796;5.808;2023-12-22T06:36:54;13.88;;;2.08;;
25263;SDS011;13211;51.796;5.808;2023-12-22T06:39:22;17.63;;;2.85;;
25263;SDS011;13211;51.796;5.808;2023-12-22T06:41:49;20.08;;;2.63;;
25263;SDS011;13211;51.796;5.808;2023-12-22T06:44:17;28.42;;;3.72;;
25263;SDS011;13211;51.796;5.808;2023-12-22T06:46:45;23.70;;;2.90;;
25263;SDS011;13211;51.796;5.808;2023-12-22T06:49:13;25.20;;;3.10;;
25263;SDS011;13211;51.796;5.808;2023-12-22T06:51:41;31.73;;;3.28;;
25263;SDS011;13211;51.796;5.808;2023-12-22T06:54:09;25.95;;;3.15;;
25263;SDS011;13211;51.796;5.808;2023-12-22T06:56:39;17.38;;;2.40;;
25263;SDS011;13211;51.796;5.808;2023-12-22T06:59:07;19.80;;;2.38;;
25263;SDS011;13211;51.796;5.808;2023-12-22T07:01:40;23.45;;;2.85;;
25263;SDS011;13211;51.796;5.808;2023-12-22T07:04:07;22.30;;;2.58;;
25263;SDS011;13211;51.796;5.808;2023-12-22T07:06:35;24.45;;;2.58;;
25263;SDS011;13211;51.796;5.808;2023-12-22T07:09:45;26.52;;;3.25;;
25263;SDS011;13211;51.796;5.808;2023-12-22T07:11:54;28.33;;;3.85;;
25263;SDS011;13211;51.796;5.808;2023-12-22T07:14:23;27.90;;;3.40;;
25263;SDS011;13211;51.796;5.808;2023-12-22T07:16:50;29.92;;;3.47;;
25263;SDS011;13211;51.796;5.808;2023-12-22T07:19:18;29.38;;;4.05;;
25263;SDS011;13211;51.796;5.808;2023-12-22T07:21:46;33.95;;;4.60;;
25263;SDS011;13211;51.796;5.808;2023-12-22T07:24:14;49.03;;;5.00;;
25263;SDS011;13211;51.796;5.808;2023-12-22T07:26:42;53.03;;;5.30;;
25263;SDS011;13211;51.796;5.808;2023-12-22T07:29:13;43.80;;;4.97;;
25263;SDS011;13211;51.796;5.808;2023-12-22T07:31:41;49.90;;;5.20;;
25263;SDS011;13211;51.796;5.808;2023-12-22T07:34:11;48.28;;;5.72;;
25263;SDS011;13211;51.796;5.808;2023-12-22T07:36:39;56.45;;;5.90;;
25263;SDS011;13211;51.796;5.808;2023-12-22T07:39:16;48.30;;;6.45;;
25263;SDS011;13211;51.796;5.808;2023-12-22T07:41:45;49.38;;;5.57;;
25263;SDS011;13211;51.796;5.808;2023-12-22T07:44:12;48.15;;;5.75;;
25263;SDS011;13211;51.796;5.808;2023-12-22T07:46:40;51.03;;;5.78;;
25263;SDS011;13211;51.796;5.808;2023-12-22T07:49:09;45.10;;;5.82;;
25263;SDS011;13211;51.796;5.808;2023-12-22T07:51:37;43.78;;;6.70;;
25263;SDS011;13211;51.796;5.808;2023-12-22T07:54:07;42.87;;;5.93;;
25263;SDS011;13211;51.796;5.808;2023-12-22T07:56:35;54.10;;;6.53;;
25263;SDS011;13211;51.796;5.808;2023-12-22T07:59:02;51.83;;;5.90;;
25263;SDS011;13211;51.796;5.808;2023-12-22T08:01:48;53.17;;;5.28;;
25263;SDS011;13211;51.796;5.808;2023-12-22T08:04:16;41.83;;;5.13;;
25263;SDS011;13211;51.796;5.808;2023-12-22T08:06:43;48.08;;;4.93;;
25263;SDS011;13211;51.796;5.808;2023-12-22T08:09:12;49.25;;;6.43;;
25263;SDS011;13211;51.796;5.808;2023-12-22T08:11:40;42.38;;;5.53;;
25263;SDS011;13211;51.796;5.808;2023-12-22T08:14:07;38.28;;;4.95;;
25263;SDS011;13211;51.796;5.808;2023-12-22T08:16:35;49.65;;;5.90;;
25263;SDS011;13211;51.796;5.808;2023-12-22T08:19:03;57.90;;;7.15;;
25263;SDS011;13211;51.796;5.808;2023-12-22T08:21:30;62.85;;;7.38;;
25263;SDS011;13211;51.796;5.808;2023-12-22T08:24:10;56.83;;;5.93;;
25263;SDS011;13211;51.796;5.808;2023-12-22T08:26:48;55.22;;;7.22;;
25263;SDS011;13211;51.796;5.808;2023-12-22T08:29:16;50.70;;;5.75;;
25263;SDS011;13211;51.796;5.808;2023-12-22T08:31:45;47.03;;;5.85;;
25263;SDS011;13211;51.796;5.808;2023-12-22T08:34:13;43.47;;;5.40;;
25263;SDS011;13211;51.796;5.808;2023-12-22T08:36:41;59.15;;;5.85;;
25263;SDS011;13211;51.796;5.808;2023-12-22T08:39:10;53.65;;;6.18;;
25263;SDS011;13211;51.796;5.808;2023-12-22T08:41:39;52.70;;;5.13;;
25263;SDS011;13211;51.796;5.808;2023-12-22T08:44:07;48.35;;;5.13;;
25263;SDS011;13211;51.796;5.808;2023-12-22T08:46:35;47.38;;;5.20;;
25263;SDS011;13211;51.796;5.808;2023-12-22T08:49:03;47.22;;;5.20;;
25263;SDS011;13211;51.796;5.808;2023-12-22T08:51:31;38.67;;;4.60;;
25263;SDS011;13211;51.796;5.808;2023-12-22T08:53:58;45.47;;;5.05;;
25263;SDS011;13211;51.796;5.808;2023-12-22T08:56:26;46.08;;;6.30;;
25263;SDS011;13211;51.796;5.808;2023-12-22T08:58:54;36.90;;;5.25;;
25263;SDS011;13211;51.796;5.808;2023-12-22T09:01:22;36.20;;;4.85;;
25263;SDS011;13211;51.796;5.808;2023-12-22T09:03:51;55.15;;;5.00;;
25263;SDS011;13211;51.796;5.808;2023-12-22T09:06:20;37.58;;;5.35;;
25263;SDS011;13211;51.796;5.808;2023-12-22T09:08:49;42.35;;;4.25;;
25263;SDS011;13211;51.796;5.808;2023-12-22T09:11:17;41.25;;;4.63;;
25263;SDS011;13211;51.796;5.808;2023-12-22T09:13:45;43.03;;;5.38;;
25263;SDS011;13211;51.796;5.808;2023-12-22T09:16:21;37.20;;;4.68;;
25263;SDS011;13211;51.796;5.808;2023-12-22T09:18:49;33.53;;;4.00;;
25263;SDS011;13211;51.796;5.808;2023-12-22T09:21:18;34.22;;;4.57;;
25263;SDS011;13211;51.796;5.808;2023-12-22T09:23:46;30.70;;;3.75;;
25263;SDS011;13211;51.796;5.808;2023-12-22T09:26:14;33.63;;;4.53;;
25263;SDS011;13211;51.796;5.808;2023-12-22T09:28:42;28.73;;;4.13;;
25263;SDS011;13211;51.796;5.808;2023-12-22T09:31:10;35.83;;;4.30;;
25263;SDS011;13211;51.796;5.808;2023-12-22T09:33:39;21.42;;;3.17;;
25263;SDS011;13211;51.796;5.808;2023-12-22T09:36:08;29.58;;;3.83;;
25263;SDS011;13211;51.796;5.808;2023-12-22T09:38:36;25.52;;;3.90;;
25263;SDS011;13211;51.796;5.808;2023-12-22T09:41:04;24.83;;;3.35;;
25263;SDS011;13211;51.796;5.808;2023-12-22T09:43:33;33.95;;;4.47;;
25263;SDS011;13211;51.796;5.808;2023-12-22T09:46:05;34.05;;;4.15;;
25263;SDS011;13211;51.796;5.808;2023-12-22T09:48:33;25.30;;;3.60;;
25263;SDS011;13211;51.796;5.808;2023-12-22T09:51:07;26.35;;;3.10;;
25263;SDS011;13211;51.796;5.808;2023-12-22T09:53:35;29.70;;;3.85;;
25263;SDS011;13211;51.796;5.808;2023-12-22T09:56:03;23.92;;;3.25;;
25263;SDS011;13211;51.796;5.808;2023-12-22T09:58:31;26.58;;;3.33;;
25263;SDS011;13211;51.796;5.808;2023-12-22T10:01:02;21.38;;;2.92;;
25263;SDS011;13211;51.796;5.808;2023-12-22T10:03:35;14.68;;;2.45;;
25263;SDS011;13211;51.796;5.808;2023-12-22T10:06:04;27.55;;;2.80;;
25263;SDS011;13211;51.796;5.808;2023-12-22T10:08:32;20.05;;;2.45;;
25263;SDS011;13211;51.796;5.808;2023-12-22T10:11:00;18.63;;;2.45;;
25263;SDS011;13211;51.796;5.808;2023-12-22T10:13:29;17.65;;;2.45;;
25263;SDS011;13211;51.796;5.808;2023-12-22T10:15:57;20.02;;;2.60;;
25263;SDS011;13211;51.796;5.808;2023-12-22T10:18:25;14.30;;;2.50;;
25263;SDS011;13211;51.796;5.808;2023-12-22T10:20:53;17.13;;;2.35;;
25263;SDS011;13211;51.796;5.808;2023-12-22T10:23:21;17.00;;;2.25;;
25263;SDS011;13211;51.796;5.808;2023-12-22T10:25:49;22.52;;;2.35;;
25263;SDS011;13211;51.796;5.808;2023-12-22T10:28:18;10.75;;;1.60;;
25263;SDS011;13211;51.796;5.808;2023-12-22T10:30:51;16.70;;;1.95;;
25263;SDS011;13211;51.796;5.808;2023-12-22T10:33:19;20.05;;;1.70;;
25263;SDS011;13211;51.796;5.808;2023-12-22T10:35:47;9.70;;;1.50;;
25263;SDS011;13211;51.796;5.808;2023-12-22T10:38:20;13.03;;;1.37;;
25263;SDS011;13211;51.796;5.808;2023-12-22T10:40:49;10.82;;;1.90;;
25263;SDS011;13211;51.796;5.808;2023-12-22T10:43:17;13.98;;;1.83;;
25263;SDS011;13211;51.796;5.808;2023-12-22T10:45:44;7.65;;;0.95;;
25263;SDS011;13211;51.796;5.808;2023-12-22T10:48:12;15.93;;;1.98;;
25263;SDS011;13211;51.796;5.808;2023-12-22T10:50:40;10.60;;;1.25;;
25263;SDS011;13211;51.796;5.808;2023-12-22T10:53:09;12.13;;;1.20;;
25263;SDS011;13211;51.796;5.808;2023-12-22T10:55:43;10.35;;;1.80;;
25263;SDS011;13211;51.796;5.808;2023-12-22T10:58:17;7.25;;;1.35;;
25263;SDS011;13211;51.796;5.808;2023-12-22T11:00:45;10.90;;;1.40;;
25263;SDS011;13211;51.796;5.808;2023-12-22T11:03:16;8.27;;;1.35;;
25263;SDS011;13211;51.796;5.808;2023-12-22T11:05:46;10.82;;;1.75;;
25263;SDS011;13211;51.796;5.808;2023-12-22T11:08:14;12.50;;;1.33;;
25263;SDS011;13211;51.796;5.808;2023-12-22T11:10:42;11.35;;;1.50;;
25263;SDS011;13211;51.796;5.808;2023-12-22T11:13:12;8.82;;;1.38;;
25263;SDS011;13211;51.796;5.808;2023-12-22T11:15:40;11.27;;;1.40;;
25263;SDS011;13211;51.796;5.808;2023-12-22T11:18:08;12.48;;;1.70;;
25263;SDS011;13211;51.796;5.808;2023-12-22T11:20:36;11.20;;;1.50;;
25263;SDS011;13211;51.796;5.808;2023-12-22T11:23:04;11.02;;;1.48;;
25263;SDS011;13211;51.796;5.808;2023-12-22T11:25:32;9.98;;;2.40;;
25263;SDS011;13211;51.796;5.808;2023-12-22T11:28:02;12.52;;;1.55;;
25263;SDS011;13211;51.796;5.808;2023-12-22T11:30:29;10.45;;;1.40;;
25263;SDS011;13211;51.796;5.808;2023-12-22T11:32:58;10.27;;;1.40;;
25263;SDS011;13211;51.796;5.808;2023-12-22T11:35:27;12.52;;;1.45;;
25263;SDS011;13211;51.796;5.808;2023-12-22T11:38:00;12.00;;;1.95;;
25263;SDS011;13211;51.796;5.808;2023-12-22T11:40:30;15.57;;;1.63;;
25263;SDS011;13211;51.796;5.808;2023-12-22T11:42:58;12.70;;;1.35;;
25263;SDS011;13211;51.796;5.808;2023-12-22T11:45:30;11.57;;;2.05;;
25263;SDS011;13211;51.796;5.808;2023-12-22T11:48:04;11.20;;;1.33;;
25263;SDS011;13211;51.796;5.808;2023-12-22T11:50:32;11.75;;;1.48;;
25263;SDS011;13211;51.796;5.808;2023-12-22T11:53:19;13.35;;;1.80;;
25263;SDS011;13211;51.796;5.808;2023-12-22T11:56:03;12.43;;;1.75;;
25263;SDS011;13211;51.796;5.808;2023-12-22T12:01:09;9.88;;;1.27;;
25263;SDS011;13211;51.796;5.808;2023-12-22T12:03:41;9.73;;;1.25;;
25263;SDS011;13211;51.796;5.808;2023-12-22T12:08:40;11.10;;;1.50;;
25263;SDS011;13211;51.796;5.808;2023-12-22T12:11:08;7.40;;;1.88;;
25263;SDS011;13211;51.796;5.808;2023-12-22T12:13:38;8.57;;;1.27;;
25263;SDS011;13211;51.796;5.808;2023-12-22T12:16:08;5.53;;;0.95;;
25263;SDS011;13211;51.796;5.808;2023-12-22T12:18:36;6.03;;;1.17;;
25263;SDS011;13211;51.796;5.808;2023-12-22T12:21:05;8.30;;;1.15;;
25263;SDS011;13211;51.796;5.808;2023-12-22T12:23:33;15.48;;;2.05;;
25263;SDS011;13211;51.796;5.808;2023-12-22T12:26:01;14.65;;;1.38;;
25263;SDS011;13211;51.796;5.808;2023-12-22T12:28:30;8.43;;;1.23;;
25263;SDS011;13211;51.796;5.808;2023-12-22T12:31:05;10.95;;;1.65;;
25263;SDS011;13211;51.796;5.808;2023-12-22T12:33:37;10.52;;;1.48;;
25263;SDS011;13211;51.796;5.808;2023-12-22T12:36:05;15.23;;;1.80;;
25263;SDS011;13211;51.796;5.808;2023-12-22T12:38:48;10.15;;;1.80;;
25263;SDS011;13211;51.796;5.808;2023-12-22T12:41:30;11.45;;;1.60;;
25263;SDS011;13211;51.796;5.808;2023-12-22T12:44:03;15.05;;;2.03;;
25263;SDS011;13211;51.796;5.808;2023-12-22T12:46:35;16.20;;;1.50;;
25263;SDS011;13211;51.796;5.808;2023-12-22T12:49:06;14.02;;;1.60;;
25263;SDS011;13211;51.796;5.808;2023-12-22T12:51:41;9.77;;;1.42;;
25263;SDS011;13211;51.796;5.808;2023-12-22T12:54:10;9.23;;;1.58;;
25263;SDS011;13211;51.796;5.808;2023-12-22T12:56:42;9.85;;;1.40;;
25263;SDS011;13211;51.796;5.808;2023-12-22T12:59:13;12.18;;;1.80;;
25263;SDS011;13211;51.796;5.808;2023-12-22T13:01:42;11.02;;;1.23;;
25263;SDS011;13211;51.796;5.808;2023-12-22T13:04:11;15.15;;;1.88;;
25263;SDS011;13211;51.796;5.808;2023-12-22T13:06:46;16.13;;;2.05;;
25263;SDS011;13211;51.796;5.808;2023-12-22T13:09:14;14.45;;;1.80;;
25263;SDS011;13211;51.796;5.808;2023-12-22T13:11:42;13.85;;;2.03;;
25263;SDS011;13211;51.796;5.808;2023-12-22T13:14:10;15.60;;;2.22;;
25263;SDS011;13211;51.796;5.808;2023-12-22T13:16:39;19.27;;;1.92;;
25263;SDS011;13211;51.796;5.808;2023-12-22T13:19:07;12.32;;;1.63;;
25263;SDS011;13211;51.796;5.808;2023-12-22T13:21:35;18.25;;;2.00;;
25263;SDS011;13211;51.796;5.808;2023-12-22T13:24:12;12.55;;;1.52;;
25263;SDS011;13211;51.796;5.808;2023-12-22T13:26:41;14.18;;;1.90;;
25263;SDS011;13211;51.796;5.808;2023-12-22T13:29:09;12.82;;;1.30;;
25263;SDS011;13211;51.796;5.808;2023-12-22T13:31:38;8.90;;;1.60;;
25263;SDS011;13211;51.796;5.808;2023-12-22T13:34:12;11.63;;;1.73;;
25263;SDS011;13211;51.796;5.808;2023-12-22T13:36:40;13.00;;;1.33;;
25263;SDS011;13211;51.796;5.808;2023-12-22T13:39:09;14.93;;;1.90;;
25263;SDS011;13211;51.796;5.808;2023-12-22T13:41:40;17.23;;;2.10;;
25263;SDS011;13211;51.796;5.808;2023-12-22T13:44:12;15.10;;;2.10;;
25263;SDS011;13211;51.796;5.808;2023-12-22T13:46:40;9.82;;;1.20;;
25263;SDS011;13211;51.796;5.808;2023-12-22T13:49:10;11.07;;;1.60;;
25263;SDS011;13211;51.796;5.808;2023-12-22T13:51:44;12.38;;;1.83;;
25263;SDS011;13211;51.796;5.808;2023-12-22T13:54:14;11.77;;;1.38;;
25263;SDS011;13211;51.796;5.808;2023-12-22T13:56:42;13.95;;;1.30;;
25263;SDS011;13211;51.796;5.808;2023-12-22T13:59:13;9.23;;;1.40;;
25263;SDS011;13211;51.796;5.808;2023-12-22T14:01:41;15.95;;;1.40;;
25263;SDS011;13211;51.796;5.808;2023-12-22T14:04:09;12.95;;;1.50;;
25263;SDS011;13211;51.796;5.808;2023-12-22T14:06:37;13.32;;;1.70;;
25263;SDS011;13211;51.796;5.808;2023-12-22T14:09:05;8.70;;;1.30;;
25263;SDS011;13211;51.796;5.808;2023-12-22T14:11:33;12.23;;;1.85;;
25263;SDS011;13211;51.796;5.808;2023-12-22T14:14:01;13.23;;;1.58;;
25263;SDS011;13211;51.796;5.808;2023-12-22T14:16:28;14.15;;;1.90;;
25263;SDS011;13211;51.796;5.808;2023-12-22T14:18:56;13.30;;;1.52;;
25263;SDS011;13211;51.796;5.808;2023-12-22T14:21:24;9.10;;;1.40;;
25263;SDS011;13211;51.796;5.808;2023-12-22T14:23:52;10.65;;;1.38;;
25263;SDS011;13211;51.796;5.808;2023-12-22T14:26:20;13.00;;;1.50;;
25263;SDS011;13211;51.796;5.808;2023-12-22T14:28:47;15.55;;;1.70;;
25263;SDS011;13211;51.796;5.808;2023-12-22T14:31:17;16.13;;;1.60;;
25263;SDS011;13211;51.796;5.808;2023-12-22T14:33:45;14.60;;;1.80;;
25263;SDS011;13211;51.796;5.808;2023-12-22T14:36:12;20.05;;;1.92;;
25263;SDS011;13211;51.796;5.808;2023-12-22T14:38:40;13.20;;;1.60;;
25263;SDS011;13211;51.796;5.808;2023-12-22T14:41:07;14.73;;;1.83;;
25263;SDS011;13211;51.796;5.808;2023-12-22T14:46:05;19.88;;;1.90;;
25263;SDS011;13211;51.796;5.808;2023-12-22T14:48:34;10.10;;;1.60;;
25263;SDS011;13211;51.796;5.808;2023-12-22T14:51:02;9.68;;;1.55;;
25263;SDS011;13211;51.796;5.808;2023-12-22T14:53:29;14.15;;;1.92;;
25263;SDS011;13211;51.796;5.808;2023-12-22T14:55:57;16.15;;;1.73;;